White River @ West Hartford, Vt

White River at West Hartford
 Total Drainage Area: 690 sq. miles 
 Drainage Area Controlled by Corps Dams: 0 sq. miles (0%) 
 Warning Flow/Stage: 9,910 cfs / 10.0 feet 
 Flood Flow/Stage: 36,100 cfs / 18.0 feet 
Date Time
(Eastern)
Stage
(ft)
Flow
(cfs)
CSM
(cfs / sq. mi.)
Jun-25 01:45 am 4.75 1,177 1.7
Jun-25 12:45 am 4.78 1,202 1.7
Jun-24 11:45 pm 4.81 1,228 1.8
Jun-24 10:45 pm 4.84 1,254 1.8
Jun-24 09:45 pm 4.88 1,289 1.9
Jun-24 08:45 pm 4.92 1,325 1.9
Jun-24 07:45 pm 4.96 1,361 2.0
Jun-24 06:45 pm 5.00 1,398 2.0
Jun-24 05:45 pm 5.05 1,445 2.1
Jun-24 04:45 pm 5.09 1,484 2.2
Jun-24 03:45 pm 5.14 1,532 2.2
Jun-24 02:45 pm 5.20 1,591 2.3
Jun-24 01:45 pm 5.26 1,652 2.4
Jun-24 12:45 pm 5.32 1,714 2.5
Jun-24 11:45 am 5.39 1,788 2.6
Jun-24 10:45 am 5.47 1,875 2.7
Jun-24 09:45 am 5.55 1,964 2.9
Jun-24 08:45 am 5.66 2,090 3.0
Jun-24 07:45 am 5.73 2,172 3.2
Jun-24 06:45 am 5.82 2,281 3.3
Jun-24 05:45 am 5.85 2,318 3.4
Jun-24 04:45 am 5.79 2,244 3.3
Jun-24 03:45 am 5.63 2,055 3.0
Jun-24 02:45 am 5.62 2,043 3.0
Jun-24 01:45 am 5.67 2,101 3.1
Report Generated June 25, 2024 05:56 am